createdAt,value
2023-02-05T00:00:09.849Z,9.68
2023-02-05T00:02:38.213Z,9.90
2023-02-05T00:05:10.127Z,10.48
2023-02-05T00:07:38.476Z,9.18
2023-02-05T00:10:07.577Z,9.90
2023-02-05T00:12:38.913Z,10.30
2023-02-05T00:15:08.305Z,10.32
2023-02-05T00:17:37.457Z,10.05
2023-02-05T00:20:06.609Z,8.75
2023-02-05T00:22:35.027Z,9.02
2023-02-05T00:25:03.533Z,8.45
2023-02-05T00:27:31.768Z,8.35
2023-02-05T00:30:01.559Z,10.38
2023-02-05T00:32:29.956Z,9.13
2023-02-05T00:34:58.503Z,8.77
2023-02-05T00:37:26.734Z,10.18
2023-02-05T00:39:55.213Z,8.20
2023-02-05T00:42:23.485Z,9.77
2023-02-05T00:44:51.780Z,9.50
2023-02-05T00:47:21.628Z,8.13
2023-02-05T00:49:50.259Z,8.48
2023-02-05T00:52:18.708Z,9.18
2023-02-05T00:54:47.270Z,8.23
2023-02-05T00:57:15.626Z,7.80
2023-02-05T00:59:44.001Z,9.30
2023-02-05T05:04:27.907Z,8.00
2023-02-05T05:06:56.318Z,7.32
2023-02-05T05:09:25.388Z,8.07
2023-02-05T05:11:54.464Z,7.65
2023-02-05T05:14:23.298Z,7.57
2023-02-05T05:16:52.048Z,8.60
2023-02-05T05:19:21.361Z,7.38
2023-02-05T05:21:51.187Z,8.25
2023-02-05T05:24:19.502Z,8.00
2023-02-05T05:26:47.841Z,7.85
2023-02-05T05:29:16.515Z,8.77
2023-02-05T05:31:44.912Z,9.15
2023-02-05T05:34:13.635Z,8.07
2023-02-05T05:36:43.705Z,7.63
2023-02-05T05:39:30.278Z,8.05
2023-02-05T05:42:15.778Z,7.95
2023-02-05T05:44:44.074Z,8.07
2023-02-05T05:47:12.438Z,7.75
2023-02-05T05:49:40.753Z,9.25
2023-02-05T05:52:09.034Z,8.02
2023-02-05T05:54:38.860Z,9.15
2023-02-05T05:57:08.849Z,9.10
2023-02-05T05:59:37.583Z,8.52
2023-02-05T06:02:06.369Z,9.40
2023-02-05T06:04:34.733Z,8.95
2023-02-05T06:07:03.356Z,8.55
2023-02-05T06:09:31.785Z,8.30
2023-02-05T06:12:01.502Z,10.52
2023-02-05T06:14:29.724Z,10.02
2023-02-05T06:16:57.967Z,9.38
2023-02-05T06:19:27.633Z,9.98
2023-02-05T06:21:55.981Z,10.95
2023-02-05T06:24:24.408Z,9.88
2023-02-05T06:26:52.700Z,9.27
2023-02-05T06:29:22.401Z,8.35
2023-02-05T06:31:51.684Z,10.07
2023-02-05T06:34:20.056Z,9.73
2023-02-05T06:36:48.325Z,9.60
2023-02-05T06:39:16.671Z,10.07
2023-02-05T06:41:44.980Z,10.07
2023-02-05T06:44:13.249Z,9.32
2023-02-05T06:46:42.971Z,9.90
2023-02-05T06:49:11.356Z,9.82
2023-02-05T06:51:39.641Z,11.60
2023-02-05T06:54:07.995Z,8.57
2023-02-05T06:56:36.267Z,8.85
2023-02-05T06:59:07.340Z,10.85
2023-02-05T07:01:35.657Z,11.77
2023-02-05T07:04:05.589Z,10.05
2023-02-05T07:06:33.893Z,11.13
2023-02-05T07:09:02.303Z,12.00
2023-02-05T07:11:30.661Z,11.10
2023-02-05T07:14:01.431Z,9.95
2023-02-05T07:16:30.480Z,9.57
2023-02-05T07:18:59.565Z,11.27
2023-02-05T07:21:29.132Z,11.95
2023-02-05T07:23:57.431Z,12.85
2023-02-05T07:26:25.784Z,11.48
2023-02-05T07:28:54.012Z,10.60
2023-02-05T07:31:22.506Z,12.40
2023-02-05T07:33:51.693Z,11.57
2023-02-05T07:36:20.493Z,11.00
2023-02-05T07:38:50.141Z,10.07
2023-02-05T07:41:19.052Z,10.13
2023-02-05T07:43:47.341Z,11.15
2023-02-05T07:46:16.805Z,11.93
2023-02-05T07:48:45.080Z,11.90
2023-02-05T07:51:17.728Z,11.82
2023-02-05T07:53:46.215Z,10.82
2023-02-05T07:56:16.224Z,10.38
2023-02-05T07:58:44.677Z,11.95
2023-02-05T08:01:13.094Z,10.20
2023-02-05T08:03:41.492Z,10.98
2023-02-05T08:06:11.229Z,13.02
2023-02-05T08:08:39.610Z,14.30
2023-02-05T08:11:08.393Z,13.55
2023-02-05T08:13:38.069Z,12.88
2023-02-05T08:16:07.304Z,13.68
2023-02-05T08:18:35.730Z,11.85
2023-02-05T08:21:04.082Z,12.88
2023-02-05T08:23:32.394Z,13.20
2023-02-05T08:26:01.551Z,11.52
2023-02-05T08:28:30.384Z,13.55
2023-02-05T08:31:00.296Z,14.18
2023-02-05T08:33:28.774Z,12.25
2023-02-05T08:35:59.600Z,12.32
2023-02-05T08:38:28.062Z,11.70
2023-02-05T08:40:56.388Z,13.50
2023-02-05T08:43:25.116Z,12.77
2023-02-05T08:45:53.475Z,11.90
2023-02-05T08:48:23.233Z,12.77
2023-02-05T08:50:51.697Z,15.23
2023-02-05T08:53:19.996Z,11.93
2023-02-05T08:55:56.301Z,10.90
2023-02-05T08:58:24.601Z,11.43
2023-02-05T09:00:53.283Z,12.80
2023-02-05T09:03:23.051Z,13.95
2023-02-05T09:05:51.420Z,13.75
2023-02-05T09:08:20.450Z,12.88
2023-02-05T09:10:48.769Z,14.68
2023-02-05T09:13:17.049Z,12.90
2023-02-05T09:15:48.460Z,13.88
2023-02-05T09:18:17.088Z,13.90
2023-02-05T09:20:48.901Z,14.52
2023-02-05T09:23:18.512Z,14.45
2023-02-05T09:25:46.790Z,13.70
2023-02-05T09:28:16.508Z,15.35
2023-02-05T09:30:47.500Z,13.98
2023-02-05T09:33:16.072Z,14.07
2023-02-05T09:35:44.457Z,16.67
2023-02-05T09:38:17.865Z,15.15
2023-02-05T09:40:55.208Z,14.55
2023-02-05T09:43:31.787Z,15.23
2023-02-05T09:46:03.372Z,14.07
2023-02-05T09:48:49.865Z,13.80
2023-02-05T09:51:21.075Z,13.98
2023-02-05T09:53:55.950Z,13.50
2023-02-05T09:56:25.342Z,14.00
2023-02-05T09:58:53.913Z,12.55
2023-02-05T10:01:25.547Z,12.18
2023-02-05T10:03:58.082Z,13.05
2023-02-05T10:06:43.051Z,13.88
2023-02-05T10:09:29.988Z,13.43
2023-02-05T10:12:04.041Z,14.73
2023-02-05T10:14:40.518Z,13.45
2023-02-05T10:17:18.242Z,11.80
2023-02-05T10:20:11.804Z,12.23
2023-02-05T10:25:45.444Z,14.00
2023-02-05T10:28:27.204Z,11.60
2023-02-05T10:30:59.108Z,13.10
2023-02-05T10:33:41.224Z,11.40
2023-02-05T10:36:11.409Z,10.45
2023-02-05T10:38:44.506Z,11.23
2023-02-05T10:43:50.702Z,8.93
2023-02-05T10:46:19.436Z,7.97
2023-02-05T10:48:49.083Z,7.97
2023-02-05T10:51:19.143Z,7.30
2023-02-05T10:53:47.478Z,7.43
2023-02-05T10:56:19.332Z,7.68
2023-02-05T10:58:52.535Z,4.45
2023-02-05T11:01:22.628Z,5.00
2023-02-05T11:03:56.267Z,4.03
2023-02-05T11:06:27.656Z,4.07
2023-02-05T11:08:56.833Z,3.85
2023-02-05T11:11:29.460Z,3.08
2023-02-05T11:14:00.013Z,4.50
2023-02-05T11:16:38.183Z,3.40
2023-02-05T11:19:06.577Z,3.20
2023-02-05T11:21:49.582Z,3.80
2023-02-05T11:24:26.933Z,3.00
2023-02-05T11:27:33.508Z,3.85
2023-02-05T11:30:47.575Z,2.45
2023-02-05T11:33:31.338Z,2.33
2023-02-05T11:36:02.116Z,2.20
2023-02-05T11:38:43.953Z,3.20
2023-02-05T11:41:14.596Z,2.70
2023-02-05T11:43:51.798Z,2.40
2023-02-05T11:46:24.595Z,2.17
2023-02-05T11:48:58.200Z,2.03
2023-02-05T11:51:40.572Z,2.45
2023-02-05T11:54:22.408Z,1.83
2023-02-05T11:57:06.372Z,2.00
2023-02-05T11:59:38.788Z,2.03
2023-02-05T12:02:37.754Z,1.55
2023-02-05T12:05:12.347Z,2.10
2023-02-05T12:07:47.141Z,2.22
2023-02-05T12:10:18.471Z,1.95
2023-02-05T12:12:53.494Z,1.88
2023-02-05T12:15:27.195Z,1.40
2023-02-05T12:18:00.128Z,1.20
2023-02-05T12:20:31.288Z,1.27
2023-02-05T12:23:32.212Z,1.52
2023-02-05T12:26:18.313Z,1.10
2023-02-05T12:28:54.777Z,0.80
2023-02-05T12:31:33.407Z,1.00
2023-02-05T12:34:10.860Z,0.80
2023-02-05T12:36:52.631Z,0.90
2023-02-05T12:39:34.881Z,1.30
2023-02-05T12:42:12.080Z,1.67
2023-02-05T12:44:49.009Z,0.80
2023-02-05T12:47:30.808Z,1.13
2023-02-05T12:50:13.754Z,1.48
2023-02-05T12:52:58.003Z,1.20
2023-02-05T12:55:38.912Z,2.45
2023-02-05T12:58:08.925Z,1.85
2023-02-05T13:00:42.324Z,1.75
2023-02-05T13:03:20.283Z,3.47
2023-02-05T13:05:50.928Z,3.83
2023-02-05T13:08:22.558Z,5.15
2023-02-05T13:10:54.844Z,5.28
2023-02-05T13:13:27.664Z,7.70
2023-02-05T13:16:01.935Z,7.65
2023-02-05T13:18:34.173Z,6.18
2023-02-05T13:21:24.014Z,9.80
2023-02-05T13:24:11.830Z,8.45
2023-02-05T13:27:03.358Z,8.32
2023-02-05T13:29:34.685Z,8.93
2023-02-05T13:32:15.298Z,8.15
2023-02-05T13:34:45.998Z,7.22
2023-02-05T13:37:35.651Z,11.20
2023-02-05T13:40:37.281Z,11.63
2023-02-05T13:43:48.738Z,11.45
2023-02-05T13:46:58.541Z,11.68
2023-02-05T13:50:04.709Z,10.40
2023-02-05T13:53:06.171Z,14.98
2023-02-05T13:56:13.544Z,12.63
2023-02-05T13:58:47.059Z,12.93
2023-02-05T14:01:23.671Z,14.13
2023-02-05T14:04:01.025Z,13.32
2023-02-05T14:06:32.448Z,12.40
2023-02-05T14:09:05.740Z,14.10
2023-02-05T14:11:54.667Z,14.18
2023-02-05T14:14:28.662Z,15.25
2023-02-05T14:16:57.831Z,15.48
2023-02-05T14:19:56.336Z,16.75
2023-02-05T14:22:36.687Z,16.17
2023-02-05T14:25:21.643Z,16.02
2023-02-05T14:27:55.362Z,15.43
2023-02-05T14:30:57.736Z,16.55
2023-02-05T14:33:39.870Z,15.90
2023-02-05T14:36:33.222Z,17.17
2023-02-05T14:39:04.155Z,18.58
2023-02-05T14:41:50.644Z,22.65
2023-02-05T14:44:24.948Z,21.20
2023-02-05T14:47:07.866Z,19.65
2023-02-05T14:49:43.358Z,23.50
2023-02-05T14:52:31.708Z,21.77
2023-02-05T14:55:03.768Z,20.45
2023-02-05T14:57:42.251Z,18.90
2023-02-05T15:00:25.789Z,17.05
2023-02-05T15:03:27.271Z,16.20
2023-02-05T15:06:01.231Z,15.95
2023-02-05T15:08:56.671Z,13.90
2023-02-05T15:11:30.025Z,13.10
2023-02-05T15:14:41.796Z,11.65
2023-02-05T15:17:41.772Z,14.35
2023-02-05T15:20:32.256Z,14.75
2023-02-05T15:23:07.745Z,16.40
2023-02-05T15:25:40.821Z,14.32
2023-02-05T15:30:49.656Z,15.93
2023-02-05T15:33:25.932Z,16.63
2023-02-05T15:35:54.359Z,16.42
2023-02-05T15:38:29.493Z,12.88
2023-02-05T15:40:58.374Z,19.08
2023-02-05T15:43:27.794Z,14.52
2023-02-05T15:46:01.784Z,16.35
2023-02-05T15:48:32.872Z,15.38
2023-02-05T15:51:02.298Z,14.02
2023-02-05T15:53:35.832Z,13.82
2023-02-05T15:56:08.854Z,13.73
2023-02-05T16:01:06.206Z,13.18
2023-02-05T16:03:38.912Z,13.05
2023-02-05T16:06:07.898Z,10.88
2023-02-05T16:08:36.297Z,10.43
2023-02-05T16:11:06.350Z,10.98
2023-02-05T16:13:34.681Z,9.40
2023-02-05T16:16:05.624Z,9.75
2023-02-05T16:18:43.997Z,10.20
2023-02-05T16:21:17.961Z,9.90
2023-02-05T16:23:49.313Z,9.20
2023-02-05T16:26:21.679Z,9.75
2023-02-05T16:28:53.209Z,9.48
2023-02-05T16:31:23.726Z,10.02
2023-02-05T16:33:55.836Z,10.52
2023-02-05T16:36:25.299Z,9.85
2023-02-05T16:38:55.590Z,9.82
2023-02-05T16:41:26.344Z,10.82
2023-02-05T16:43:55.602Z,10.73
2023-02-05T16:46:26.179Z,14.48
2023-02-05T16:48:58.501Z,13.20
2023-02-05T16:51:55.274Z,13.20
2023-02-05T16:54:34.903Z,12.50
2023-02-05T16:57:06.804Z,13.77
2023-02-05T16:59:37.349Z,13.68
2023-02-05T17:02:05.719Z,14.25
2023-02-05T17:04:37.742Z,12.82
2023-02-05T17:07:19.406Z,14.18
2023-02-05T17:09:47.968Z,13.70
2023-02-05T17:12:37.537Z,12.82
2023-02-05T17:15:41.288Z,13.27
2023-02-05T17:20:49.855Z,13.73
2023-02-05T17:23:18.821Z,12.68
2023-02-05T17:25:54.867Z,12.00
2023-02-05T17:28:25.593Z,12.23
2023-02-05T17:30:55.027Z,11.90
2023-02-05T17:33:25.404Z,11.20
2023-02-05T17:35:55.248Z,11.90
2023-02-05T17:38:24.329Z,9.38
2023-02-05T17:41:13.515Z,8.75
2023-02-05T17:43:42.247Z,8.73
2023-02-05T17:46:14.278Z,9.88
2023-02-05T17:48:44.656Z,8.60
2023-02-05T17:51:20.132Z,9.00
2023-02-05T17:53:48.503Z,10.68
2023-02-05T17:56:16.685Z,8.75
2023-02-05T17:58:44.995Z,8.00
2023-02-05T18:01:13.364Z,8.05
2023-02-05T18:03:41.797Z,7.18
2023-02-05T18:06:11.956Z,8.10
2023-02-05T18:08:42.328Z,7.82
2023-02-05T18:11:11.082Z,8.23
2023-02-05T18:13:39.328Z,8.07
2023-02-05T18:16:07.845Z,10.23
2023-02-05T18:18:37.974Z,11.15
2023-02-05T18:21:07.250Z,11.38
2023-02-05T18:23:35.768Z,11.85
2023-02-05T18:26:06.703Z,11.52
2023-02-05T18:28:35.262Z,12.10
2023-02-05T18:31:05.140Z,12.60
2023-02-05T18:33:33.696Z,13.07
2023-02-05T18:36:02.288Z,12.77
2023-02-05T18:38:31.794Z,11.60
2023-02-05T18:41:07.929Z,13.65
2023-02-05T18:43:36.855Z,13.77
2023-02-05T18:46:09.187Z,14.15
2023-02-05T18:48:37.855Z,14.70
2023-02-05T18:51:06.953Z,13.45
2023-02-05T18:53:35.743Z,15.63
2023-02-05T18:56:04.906Z,13.75
2023-02-05T18:58:34.854Z,12.40
2023-02-05T19:01:09.773Z,14.48
2023-02-05T19:03:40.739Z,16.52
2023-02-05T19:06:09.942Z,14.70
2023-02-05T19:08:38.922Z,13.93
2023-02-05T19:11:08.372Z,14.13
2023-02-05T19:13:38.300Z,14.35
2023-02-05T19:16:08.271Z,14.75
2023-02-05T19:18:36.816Z,14.40
2023-02-05T19:21:06.273Z,14.20
2023-02-05T19:23:35.109Z,12.70
2023-02-05T19:26:04.853Z,13.48
2023-02-05T19:28:33.207Z,13.65
2023-02-05T19:31:06.002Z,11.55
2023-02-05T19:33:35.110Z,13.10
2023-02-05T19:36:04.966Z,13.05
2023-02-05T19:38:35.141Z,17.88
2023-02-05T19:41:07.428Z,18.20
2023-02-05T19:43:35.752Z,16.02
2023-02-05T19:46:06.451Z,20.63
2023-02-05T19:48:35.670Z,20.15
2023-02-05T19:51:07.949Z,22.67
2023-02-05T19:53:37.990Z,22.00
2023-02-05T19:56:07.874Z,20.38
2023-02-05T19:58:36.374Z,23.10
2023-02-05T20:01:14.028Z,23.02
2023-02-05T20:03:42.860Z,22.67
2023-02-05T20:06:12.849Z,19.48
2023-02-05T20:08:41.100Z,22.40
2023-02-05T20:11:09.667Z,22.45
2023-02-05T20:13:38.691Z,19.92
2023-02-05T20:16:10.554Z,18.92
2023-02-05T20:18:40.964Z,17.65
2023-02-05T20:21:10.159Z,19.63
2023-02-05T20:23:39.193Z,19.08
2023-02-05T20:26:07.992Z,18.38
2023-02-05T20:28:57.902Z,17.77
2023-02-05T20:31:34.471Z,18.13
2023-02-05T20:34:05.952Z,16.02
2023-02-05T20:36:35.412Z,16.73
2023-02-05T20:39:05.756Z,16.05
2023-02-05T20:41:34.730Z,15.70
2023-02-05T20:44:03.328Z,15.25
2023-02-05T20:46:31.982Z,16.83
2023-02-05T20:49:01.122Z,14.57
2023-02-05T20:51:31.471Z,14.32
2023-02-05T20:54:00.400Z,13.68
2023-02-05T20:56:30.483Z,13.43
2023-02-05T20:59:00.118Z,13.60
2023-02-05T21:01:29.435Z,13.68
2023-02-05T21:03:59.035Z,12.70
2023-02-05T21:06:28.285Z,13.70
2023-02-05T21:08:58.283Z,12.20
2023-02-05T21:11:27.896Z,10.35
2023-02-05T21:13:56.414Z,12.30
2023-02-05T21:16:26.255Z,12.65
2023-02-05T21:18:54.943Z,12.57
2023-02-05T21:21:24.926Z,13.10
2023-02-05T21:23:55.551Z,10.48
2023-02-05T21:26:26.801Z,10.93
2023-02-05T21:28:55.571Z,11.95
2023-02-05T21:31:24.676Z,10.75
2023-02-05T21:33:53.161Z,12.10
2023-02-05T21:36:21.328Z,12.40
2023-02-05T21:38:49.623Z,12.85
2023-02-05T21:41:19.194Z,12.35
2023-02-05T21:43:51.335Z,12.27
2023-02-05T21:46:20.172Z,13.03
2023-02-05T21:48:49.806Z,12.68
2023-02-05T21:51:19.719Z,13.18
2023-02-05T21:53:47.984Z,14.85
2023-02-05T21:56:17.693Z,13.05
2023-02-05T21:58:46.015Z,13.52
2023-02-05T22:01:17.625Z,12.77
2023-02-05T22:03:50.401Z,14.73
2023-02-05T22:06:18.691Z,13.27
2023-02-05T22:08:48.376Z,13.88
2023-02-05T22:11:17.260Z,13.00
2023-02-05T22:13:47.386Z,14.48
2023-02-05T22:16:19.004Z,13.43
2023-02-05T22:18:47.430Z,13.48
2023-02-05T22:21:18.181Z,11.63
2023-02-05T22:23:49.165Z,13.65
2023-02-05T22:26:18.473Z,14.13
2023-02-05T22:28:47.266Z,14.07
2023-02-05T22:31:19.128Z,13.45
2023-02-05T22:33:49.221Z,14.77
2023-02-05T22:36:18.812Z,14.93
2023-02-05T22:38:47.472Z,13.18
2023-02-05T22:41:21.937Z,13.77
2023-02-05T22:43:51.593Z,13.93
2023-02-05T22:46:24.064Z,13.75
2023-02-05T22:48:53.526Z,13.73
2023-02-05T22:51:24.853Z,14.18
2023-02-05T22:53:53.972Z,13.75
2023-02-05T22:56:22.990Z,16.13
2023-02-05T22:58:52.121Z,16.10
